sensor_id;sensor_type;location;lat;lon;timestamp;P1;durP1;ratioP1;P2;durP2;ratioP2
66751;SDS011;53663;42.676;23.238;2023-07-22T00:02:12;19.58;;;5.15;;
66751;SDS011;53663;42.676;23.238;2023-07-22T00:04:38;10.15;;;4.80;;
66751;SDS011;53663;42.676;23.238;2023-07-22T00:07:03;12.50;;;5.47;;
66751;SDS011;53663;42.676;23.238;2023-07-22T00:09:29;10.63;;;5.15;;
66751;SDS011;53663;42.676;23.238;2023-07-22T00:11:58;13.55;;;5.55;;
66751;SDS011;53663;42.676;23.238;2023-07-22T00:14:24;15.85;;;5.47;;
66751;SDS011;53663;42.676;23.238;2023-07-22T00:16:49;13.70;;;4.55;;
66751;SDS011;53663;42.676;23.238;2023-07-22T00:19:15;17.70;;;4.72;;
66751;SDS011;53663;42.676;23.238;2023-07-22T00:21:40;15.80;;;4.97;;
66751;SDS011;53663;42.676;23.238;2023-07-22T00:24:06;10.45;;;5.05;;
66751;SDS011;53663;42.676;23.238;2023-07-22T00:26:31;17.27;;;5.18;;
66751;SDS011;53663;42.676;23.238;2023-07-22T00:28:57;12.05;;;5.50;;
66751;SDS011;53663;42.676;23.238;2023-07-22T00:31:22;11.38;;;4.70;;
66751;SDS011;53663;42.676;23.238;2023-07-22T00:33:48;10.23;;;5.10;;
66751;SDS011;53663;42.676;23.238;2023-07-22T00:36:13;10.13;;;5.00;;
66751;SDS011;53663;42.676;23.238;2023-07-22T00:38:39;10.18;;;5.28;;
66751;SDS011;53663;42.676;23.238;2023-07-22T00:41:05;11.63;;;5.15;;
66751;SDS011;53663;42.676;23.238;2023-07-22T00:43:31;11.95;;;4.97;;
66751;SDS011;53663;42.676;23.238;2023-07-22T00:45:56;9.45;;;5.15;;
66751;SDS011;53663;42.676;23.238;2023-07-22T00:48:22;13.40;;;4.72;;
66751;SDS011;53663;42.676;23.238;2023-07-22T00:50:48;13.75;;;4.53;;
66751;SDS011;53663;42.676;23.238;2023-07-22T00:53:13;11.48;;;5.07;;
66751;SDS011;53663;42.676;23.238;2023-07-22T00:55:39;12.35;;;4.90;;
66751;SDS011;53663;42.676;23.238;2023-07-22T00:58:07;10.38;;;5.10;;
66751;SDS011;53663;42.676;23.238;2023-07-22T01:00:33;11.93;;;5.07;;
66751;SDS011;53663;42.676;23.238;2023-07-22T01:02:58;16.30;;;5.22;;
66751;SDS011;53663;42.676;23.238;2023-07-22T01:05:25;14.82;;;5.50;;
66751;SDS011;53663;42.676;23.238;2023-07-22T01:07:52;12.63;;;4.97;;
66751;SDS011;53663;42.676;23.238;2023-07-22T01:10:18;10.13;;;5.13;;
66751;SDS011;53663;42.676;23.238;2023-07-22T01:12:44;14.85;;;4.88;;
66751;SDS011;53663;42.676;23.238;2023-07-22T01:15:10;14.90;;;5.40;;
66751;SDS011;53663;42.676;23.238;2023-07-22T01:17:36;12.15;;;4.93;;
66751;SDS011;53663;42.676;23.238;2023-07-22T01:20:03;11.10;;;4.97;;
66751;SDS011;53663;42.676;23.238;2023-07-22T01:22:30;11.15;;;5.68;;
66751;SDS011;53663;42.676;23.238;2023-07-22T01:24:57;10.25;;;5.00;;
66751;SDS011;53663;42.676;23.238;2023-07-22T01:27:23;15.55;;;5.40;;
66751;SDS011;53663;42.676;23.238;2023-07-22T01:29:52;11.77;;;4.95;;
66751;SDS011;53663;42.676;23.238;2023-07-22T01:32:18;14.15;;;5.45;;
66751;SDS011;53663;42.676;23.238;2023-07-22T01:34:45;13.55;;;5.13;;
66751;SDS011;53663;42.676;23.238;2023-07-22T01:37:10;10.82;;;5.00;;
66751;SDS011;53663;42.676;23.238;2023-07-22T01:39:36;10.73;;;4.90;;
66751;SDS011;53663;42.676;23.238;2023-07-22T01:42:02;10.13;;;4.65;;
66751;SDS011;53663;42.676;23.238;2023-07-22T01:44:27;8.93;;;5.10;;
66751;SDS011;53663;42.676;23.238;2023-07-22T01:46:53;10.52;;;4.95;;
66751;SDS011;53663;42.676;23.238;2023-07-22T01:49:19;12.35;;;4.70;;
66751;SDS011;53663;42.676;23.238;2023-07-22T01:51:45;13.93;;;5.13;;
66751;SDS011;53663;42.676;23.238;2023-07-22T01:54:10;10.70;;;5.00;;
66751;SDS011;53663;42.676;23.238;2023-07-22T01:56:37;12.07;;;5.38;;
66751;SDS011;53663;42.676;23.238;2023-07-22T01:59:04;13.48;;;4.82;;
66751;SDS011;53663;42.676;23.238;2023-07-22T02:01:30;10.52;;;4.97;;
66751;SDS011;53663;42.676;23.238;2023-07-22T02:03:56;17.00;;;5.70;;
66751;SDS011;53663;42.676;23.238;2023-07-22T02:06:22;10.45;;;5.55;;
66751;SDS011;53663;42.676;23.238;2023-07-22T02:08:48;11.68;;;4.82;;
66751;SDS011;53663;42.676;23.238;2023-07-22T02:11:13;9.80;;;5.07;;
66751;SDS011;53663;42.676;23.238;2023-07-22T02:13:39;12.20;;;5.10;;
66751;SDS011;53663;42.676;23.238;2023-07-22T02:16:05;12.13;;;5.68;;
66751;SDS011;53663;42.676;23.238;2023-07-22T02:18:30;14.45;;;5.72;;
66751;SDS011;53663;42.676;23.238;2023-07-22T02:20:56;12.60;;;5.00;;
66751;SDS011;53663;42.676;23.238;2023-07-22T02:23:23;13.43;;;5.55;;
66751;SDS011;53663;42.676;23.238;2023-07-22T02:25:53;17.20;;;5.57;;
66751;SDS011;53663;42.676;23.238;2023-07-22T02:28:20;10.07;;;5.15;;
66751;SDS011;53663;42.676;23.238;2023-07-22T02:30:47;12.02;;;5.03;;
66751;SDS011;53663;42.676;23.238;2023-07-22T02:33:13;10.35;;;5.60;;
66751;SDS011;53663;42.676;23.238;2023-07-22T02:35:40;14.20;;;5.45;;
66751;SDS011;53663;42.676;23.238;2023-07-22T02:38:06;15.43;;;5.38;;
66751;SDS011;53663;42.676;23.238;2023-07-22T02:40:38;11.52;;;5.00;;
66751;SDS011;53663;42.676;23.238;2023-07-22T02:43:04;15.43;;;5.30;;
66751;SDS011;53663;42.676;23.238;2023-07-22T02:45:32;11.65;;;5.10;;
66751;SDS011;53663;42.676;23.238;2023-07-22T02:47:58;11.55;;;5.30;;
66751;SDS011;53663;42.676;23.238;2023-07-22T02:50:23;12.52;;;5.50;;
66751;SDS011;53663;42.676;23.238;2023-07-22T02:52:50;12.93;;;6.13;;
66751;SDS011;53663;42.676;23.238;2023-07-22T02:55:17;15.65;;;5.38;;
66751;SDS011;53663;42.676;23.238;2023-07-22T02:57:46;17.90;;;5.40;;
66751;SDS011;53663;42.676;23.238;2023-07-22T03:00:13;11.77;;;5.45;;
66751;SDS011;53663;42.676;23.238;2023-07-22T03:02:48;14.07;;;5.78;;
66751;SDS011;53663;42.676;23.238;2023-07-22T03:05:16;14.70;;;5.47;;
66751;SDS011;53663;42.676;23.238;2023-07-22T03:07:41;15.77;;;5.70;;
66751;SDS011;53663;42.676;23.238;2023-07-22T03:10:07;14.95;;;5.75;;
66751;SDS011;53663;42.676;23.238;2023-07-22T03:12:34;11.73;;;4.68;;
66751;SDS011;53663;42.676;23.238;2023-07-22T03:15:00;9.90;;;5.55;;
66751;SDS011;53663;42.676;23.238;2023-07-22T03:17:26;10.30;;;5.35;;
66751;SDS011;53663;42.676;23.238;2023-07-22T03:19:52;11.77;;;5.40;;
66751;SDS011;53663;42.676;23.238;2023-07-22T03:22:17;12.60;;;5.07;;
66751;SDS011;53663;42.676;23.238;2023-07-22T03:24:44;14.88;;;5.10;;
66751;SDS011;53663;42.676;23.238;2023-07-22T03:27:10;18.92;;;6.07;;
66751;SDS011;53663;42.676;23.238;2023-07-22T03:29:37;17.00;;;5.82;;
66751;SDS011;53663;42.676;23.238;2023-07-22T03:32:03;16.58;;;5.20;;
66751;SDS011;53663;42.676;23.238;2023-07-22T03:34:29;11.82;;;5.28;;
66751;SDS011;53663;42.676;23.238;2023-07-22T03:36:55;24.25;;;6.68;;
66751;SDS011;53663;42.676;23.238;2023-07-22T03:39:21;16.55;;;6.25;;
66751;SDS011;53663;42.676;23.238;2023-07-22T03:41:47;18.77;;;6.00;;
66751;SDS011;53663;42.676;23.238;2023-07-22T03:44:13;23.38;;;5.97;;
66751;SDS011;53663;42.676;23.238;2023-07-22T03:46:38;17.45;;;5.38;;
66751;SDS011;53663;42.676;23.238;2023-07-22T03:49:04;14.15;;;5.07;;
66751;SDS011;53663;42.676;23.238;2023-07-22T03:51:30;12.30;;;5.38;;
66751;SDS011;53663;42.676;23.238;2023-07-22T03:53:55;20.48;;;6.43;;
66751;SDS011;53663;42.676;23.238;2023-07-22T03:56:21;14.65;;;5.28;;
66751;SDS011;53663;42.676;23.238;2023-07-22T03:58:49;11.73;;;5.30;;
66751;SDS011;53663;42.676;23.238;2023-07-22T04:01:18;12.20;;;5.22;;
66751;SDS011;53663;42.676;23.238;2023-07-22T04:03:44;13.90;;;5.00;;
66751;SDS011;53663;42.676;23.238;2023-07-22T04:06:09;9.95;;;5.43;;
66751;SDS011;53663;42.676;23.238;2023-07-22T04:08:35;17.98;;;5.75;;
66751;SDS011;53663;42.676;23.238;2023-07-22T04:11:00;17.70;;;5.18;;
66751;SDS011;53663;42.676;23.238;2023-07-22T04:13:26;18.23;;;5.75;;
66751;SDS011;53663;42.676;23.238;2023-07-22T04:15:52;16.65;;;5.22;;
66751;SDS011;53663;42.676;23.238;2023-07-22T04:18:19;9.85;;;5.45;;
66751;SDS011;53663;42.676;23.238;2023-07-22T04:20:45;15.52;;;6.25;;
66751;SDS011;53663;42.676;23.238;2023-07-22T04:23:13;10.23;;;5.25;;
66751;SDS011;53663;42.676;23.238;2023-07-22T04:25:42;14.98;;;5.68;;
66751;SDS011;53663;42.676;23.238;2023-07-22T04:28:08;13.73;;;5.32;;
66751;SDS011;53663;42.676;23.238;2023-07-22T04:30:34;12.15;;;5.32;;
66751;SDS011;53663;42.676;23.238;2023-07-22T04:33:01;10.63;;;4.80;;
66751;SDS011;53663;42.676;23.238;2023-07-22T04:35:29;10.75;;;4.93;;
66751;SDS011;53663;42.676;23.238;2023-07-22T04:37:57;14.35;;;5.30;;
66751;SDS011;53663;42.676;23.238;2023-07-22T04:40:22;11.77;;;5.18;;
66751;SDS011;53663;42.676;23.238;2023-07-22T04:42:50;11.40;;;5.07;;
66751;SDS011;53663;42.676;23.238;2023-07-22T04:45:16;11.75;;;5.03;;
66751;SDS011;53663;42.676;23.238;2023-07-22T04:47:43;10.25;;;4.95;;
66751;SDS011;53663;42.676;23.238;2023-07-22T04:50:12;17.52;;;5.63;;
66751;SDS011;53663;42.676;23.238;2023-07-22T04:52:38;10.05;;;5.35;;
66751;SDS011;53663;42.676;23.238;2023-07-22T04:55:04;11.35;;;5.65;;
66751;SDS011;53663;42.676;23.238;2023-07-22T04:57:35;17.92;;;5.18;;
66751;SDS011;53663;42.676;23.238;2023-07-22T05:00:02;11.10;;;5.18;;
66751;SDS011;53663;42.676;23.238;2023-07-22T05:02:32;11.75;;;5.22;;
66751;SDS011;53663;42.676;23.238;2023-07-22T05:04:57;8.43;;;4.90;;
66751;SDS011;53663;42.676;23.238;2023-07-22T05:07:23;8.13;;;5.28;;
66751;SDS011;53663;42.676;23.238;2023-07-22T05:09:49;17.85;;;6.22;;
66751;SDS011;53663;42.676;23.238;2023-07-22T05:12:16;12.85;;;4.95;;
66751;SDS011;53663;42.676;23.238;2023-07-22T05:14:42;13.88;;;5.07;;
66751;SDS011;53663;42.676;23.238;2023-07-22T05:17:07;13.70;;;5.85;;
66751;SDS011;53663;42.676;23.238;2023-07-22T05:19:32;13.20;;;5.25;;
66751;SDS011;53663;42.676;23.238;2023-07-22T05:21:58;15.85;;;5.95;;
66751;SDS011;53663;42.676;23.238;2023-07-22T05:24:23;12.35;;;5.22;;
66751;SDS011;53663;42.676;23.238;2023-07-22T05:26:49;14.77;;;5.97;;
66751;SDS011;53663;42.676;23.238;2023-07-22T05:29:14;10.05;;;5.35;;
66751;SDS011;53663;42.676;23.238;2023-07-22T05:31:41;12.23;;;5.78;;
66751;SDS011;53663;42.676;23.238;2023-07-22T05:34:07;14.43;;;6.10;;
66751;SDS011;53663;42.676;23.238;2023-07-22T05:36:32;10.25;;;5.35;;
66751;SDS011;53663;42.676;23.238;2023-07-22T05:38:58;12.70;;;5.60;;
66751;SDS011;53663;42.676;23.238;2023-07-22T05:41:23;11.48;;;5.75;;
66751;SDS011;53663;42.676;23.238;2023-07-22T05:43:49;9.80;;;6.25;;
66751;SDS011;53663;42.676;23.238;2023-07-22T05:46:14;12.20;;;5.18;;
66751;SDS011;53663;42.676;23.238;2023-07-22T05:48:40;8.82;;;5.72;;
66751;SDS011;53663;42.676;23.238;2023-07-22T05:51:05;15.30;;;6.22;;
66751;SDS011;53663;42.676;23.238;2023-07-22T05:53:32;15.38;;;6.40;;
66751;SDS011;53663;42.676;23.238;2023-07-22T05:55:58;13.60;;;7.10;;
66751;SDS011;53663;42.676;23.238;2023-07-22T05:58:24;13.68;;;6.70;;
66751;SDS011;53663;42.676;23.238;2023-07-22T06:00:49;16.38;;;6.93;;
66751;SDS011;53663;42.676;23.238;2023-07-22T06:03:17;17.98;;;6.78;;
66751;SDS011;53663;42.676;23.238;2023-07-22T06:05:43;16.77;;;6.70;;
66751;SDS011;53663;42.676;23.238;2023-07-22T06:08:08;17.13;;;6.80;;
66751;SDS011;53663;42.676;23.238;2023-07-22T06:10:34;17.13;;;6.85;;
66751;SDS011;53663;42.676;23.238;2023-07-22T06:12:59;17.05;;;7.53;;
66751;SDS011;53663;42.676;23.238;2023-07-22T06:15:25;12.48;;;7.13;;
66751;SDS011;53663;42.676;23.238;2023-07-22T06:17:50;18.25;;;7.38;;
66751;SDS011;53663;42.676;23.238;2023-07-22T06:20:16;21.92;;;6.88;;
66751;SDS011;53663;42.676;23.238;2023-07-22T06:22:41;18.02;;;8.73;;
66751;SDS011;53663;42.676;23.238;2023-07-22T06:25:07;21.17;;;8.50;;
66751;SDS011;53663;42.676;23.238;2023-07-22T06:27:33;19.73;;;7.65;;
66751;SDS011;53663;42.676;23.238;2023-07-22T06:30:00;15.77;;;7.65;;
66751;SDS011;53663;42.676;23.238;2023-07-22T06:32:26;18.58;;;7.47;;
66751;SDS011;53663;42.676;23.238;2023-07-22T06:34:51;16.05;;;8.82;;
66751;SDS011;53663;42.676;23.238;2023-07-22T06:37:17;21.00;;;8.05;;
66751;SDS011;53663;42.676;23.238;2023-07-22T06:39:42;12.93;;;6.68;;
66751;SDS011;53663;42.676;23.238;2023-07-22T06:42:08;13.93;;;7.55;;
66751;SDS011;53663;42.676;23.238;2023-07-22T06:44:34;19.60;;;7.32;;
66751;SDS011;53663;42.676;23.238;2023-07-22T06:46:59;15.18;;;7.00;;
66751;SDS011;53663;42.676;23.238;2023-07-22T06:49:25;16.33;;;7.28;;
66751;SDS011;53663;42.676;23.238;2023-07-22T06:51:50;20.58;;;9.15;;
66751;SDS011;53663;42.676;23.238;2023-07-22T06:54:17;13.75;;;7.78;;
66751;SDS011;53663;42.676;23.238;2023-07-22T06:56:42;25.08;;;9.88;;
66751;SDS011;53663;42.676;23.238;2023-07-22T06:59:08;21.45;;;8.55;;
66751;SDS011;53663;42.676;23.238;2023-07-22T07:01:33;16.58;;;8.60;;
66751;SDS011;53663;42.676;23.238;2023-07-22T07:03:59;18.52;;;9.20;;
66751;SDS011;53663;42.676;23.238;2023-07-22T07:06:24;22.20;;;10.02;;
66751;SDS011;53663;42.676;23.238;2023-07-22T07:08:50;25.17;;;9.50;;
66751;SDS011;53663;42.676;23.238;2023-07-22T07:11:16;19.20;;;9.40;;
66751;SDS011;53663;42.676;23.238;2023-07-22T07:13:41;21.15;;;9.88;;
66751;SDS011;53663;42.676;23.238;2023-07-22T07:16:19;16.08;;;8.93;;
66751;SDS011;53663;42.676;23.238;2023-07-22T07:18:49;26.48;;;9.43;;
66751;SDS011;53663;42.676;23.238;2023-07-22T07:21:16;16.17;;;8.38;;
66751;SDS011;53663;42.676;23.238;2023-07-22T07:23:42;18.10;;;8.90;;
66751;SDS011;53663;42.676;23.238;2023-07-22T07:26:07;17.00;;;9.10;;
66751;SDS011;53663;42.676;23.238;2023-07-22T07:28:33;15.70;;;8.85;;
66751;SDS011;53663;42.676;23.238;2023-07-22T07:30:59;19.98;;;8.25;;
66751;SDS011;53663;42.676;23.238;2023-07-22T07:33:24;22.25;;;8.57;;
66751;SDS011;53663;42.676;23.238;2023-07-22T07:35:50;17.95;;;8.20;;
66751;SDS011;53663;42.676;23.238;2023-07-22T07:38:15;17.30;;;8.32;;
66751;SDS011;53663;42.676;23.238;2023-07-22T07:40:41;18.25;;;9.10;;
66751;SDS011;53663;42.676;23.238;2023-07-22T07:43:07;41.78;;;23.13;;
66751;SDS011;53663;42.676;23.238;2023-07-22T07:45:32;29.80;;;12.50;;
66751;SDS011;53663;42.676;23.238;2023-07-22T07:47:58;21.77;;;11.43;;
66751;SDS011;53663;42.676;23.238;2023-07-22T07:50:23;15.90;;;8.50;;
66751;SDS011;53663;42.676;23.238;2023-07-22T07:52:49;13.82;;;8.07;;
66751;SDS011;53663;42.676;23.238;2023-07-22T07:55:14;19.23;;;7.95;;
66751;SDS011;53663;42.676;23.238;2023-07-22T07:57:40;24.15;;;8.05;;
66751;SDS011;53663;42.676;23.238;2023-07-22T08:00:05;17.98;;;9.20;;
66751;SDS011;53663;42.676;23.238;2023-07-22T08:02:34;20.75;;;8.68;;
66751;SDS011;53663;42.676;23.238;2023-07-22T08:05:00;15.65;;;7.85;;
66751;SDS011;53663;42.676;23.238;2023-07-22T08:07:26;12.70;;;8.27;;
66751;SDS011;53663;42.676;23.238;2023-07-22T08:09:51;16.42;;;8.00;;
66751;SDS011;53663;42.676;23.238;2023-07-22T08:12:18;17.05;;;7.30;;
66751;SDS011;53663;42.676;23.238;2023-07-22T08:14:43;19.77;;;8.40;;
66751;SDS011;53663;42.676;23.238;2023-07-22T08:17:09;19.33;;;7.75;;
66751;SDS011;53663;42.676;23.238;2023-07-22T08:19:35;17.35;;;8.07;;
66751;SDS011;53663;42.676;23.238;2023-07-22T08:22:00;15.30;;;8.20;;
66751;SDS011;53663;42.676;23.238;2023-07-22T08:24:26;17.10;;;8.60;;
66751;SDS011;53663;42.676;23.238;2023-07-22T08:26:52;19.52;;;7.65;;
66751;SDS011;53663;42.676;23.238;2023-07-22T08:29:17;20.40;;;8.85;;
66751;SDS011;53663;42.676;23.238;2023-07-22T08:31:43;19.63;;;8.35;;
66751;SDS011;53663;42.676;23.238;2023-07-22T08:34:08;18.27;;;10.02;;
66751;SDS011;53663;42.676;23.238;2023-07-22T08:36:34;24.23;;;8.45;;
66751;SDS011;53663;42.676;23.238;2023-07-22T08:39:00;19.88;;;8.20;;
66751;SDS011;53663;42.676;23.238;2023-07-22T08:41:26;17.17;;;8.10;;
66751;SDS011;53663;42.676;23.238;2023-07-22T08:43:53;17.60;;;7.90;;
66751;SDS011;53663;42.676;23.238;2023-07-22T08:46:20;14.48;;;7.35;;
66751;SDS011;53663;42.676;23.238;2023-07-22T08:48:47;18.65;;;7.88;;
66751;SDS011;53663;42.676;23.238;2023-07-22T08:51:17;26.77;;;7.97;;
66751;SDS011;53663;42.676;23.238;2023-07-22T08:53:43;19.50;;;7.90;;
66751;SDS011;53663;42.676;23.238;2023-07-22T08:56:09;23.42;;;9.30;;
66751;SDS011;53663;42.676;23.238;2023-07-22T08:58:36;21.95;;;8.38;;
66751;SDS011;53663;42.676;23.238;2023-07-22T09:01:03;19.88;;;8.52;;
66751;SDS011;53663;42.676;23.238;2023-07-22T09:03:30;24.15;;;8.55;;
66751;SDS011;53663;42.676;23.238;2023-07-22T09:05:57;17.02;;;7.53;;
66751;SDS011;53663;42.676;23.238;2023-07-22T09:08:23;19.52;;;7.97;;
66751;SDS011;53663;42.676;23.238;2023-07-22T09:10:49;17.67;;;7.57;;
66751;SDS011;53663;42.676;23.238;2023-07-22T09:13:15;22.33;;;7.80;;
66751;SDS011;53663;42.676;23.238;2023-07-22T09:15:40;23.88;;;8.43;;
66751;SDS011;53663;42.676;23.238;2023-07-22T09:18:06;21.63;;;8.35;;
66751;SDS011;53663;42.676;23.238;2023-07-22T09:20:32;45.00;;;25.10;;
66751;SDS011;53663;42.676;23.238;2023-07-22T09:22:59;13.68;;;7.82;;
66751;SDS011;53663;42.676;23.238;2023-07-22T09:25:28;35.65;;;15.18;;
66751;SDS011;53663;42.676;23.238;2023-07-22T09:27:54;25.00;;;10.90;;
66751;SDS011;53663;42.676;23.238;2023-07-22T09:33:03;28.95;;;10.20;;
66751;SDS011;53663;42.676;23.238;2023-07-22T09:38:11;28.83;;;9.10;;
66751;SDS011;53663;42.676;23.238;2023-07-22T09:40:39;21.77;;;7.55;;
66751;SDS011;53663;42.676;23.238;2023-07-22T09:43:05;18.38;;;8.00;;
66751;SDS011;53663;42.676;23.238;2023-07-22T09:45:31;26.27;;;8.73;;
66751;SDS011;53663;42.676;23.238;2023-07-22T09:47:58;26.73;;;8.55;;
66751;SDS011;53663;42.676;23.238;2023-07-22T09:50:24;27.90;;;8.55;;
66751;SDS011;53663;42.676;23.238;2023-07-22T09:52:51;19.92;;;7.65;;
66751;SDS011;53663;42.676;23.238;2023-07-22T09:55:22;22.55;;;7.40;;
66751;SDS011;53663;42.676;23.238;2023-07-22T09:57:53;23.48;;;6.70;;
66751;SDS011;53663;42.676;23.238;2023-07-22T10:00:21;20.25;;;6.28;;
66751;SDS011;53663;42.676;23.238;2023-07-22T10:02:50;28.17;;;6.72;;
66751;SDS011;53663;42.676;23.238;2023-07-22T10:05:17;23.67;;;6.70;;
66751;SDS011;53663;42.676;23.238;2023-07-22T10:07:49;24.20;;;7.60;;
66751;SDS011;53663;42.676;23.238;2023-07-22T10:10:16;28.27;;;7.88;;
66751;SDS011;53663;42.676;23.238;2023-07-22T10:12:44;23.15;;;6.30;;
66751;SDS011;53663;42.676;23.238;2023-07-22T10:15:11;29.58;;;7.07;;
66751;SDS011;53663;42.676;23.238;2023-07-22T10:17:38;26.27;;;7.43;;
66751;SDS011;53663;42.676;23.238;2023-07-22T10:20:11;24.08;;;6.60;;
66751;SDS011;53663;42.676;23.238;2023-07-22T10:22:45;26.02;;;6.97;;
66751;SDS011;53663;42.676;23.238;2023-07-22T10:25:12;23.48;;;7.00;;
66751;SDS011;53663;42.676;23.238;2023-07-22T10:27:40;40.03;;;7.30;;
66751;SDS011;53663;42.676;23.238;2023-07-22T10:30:10;24.05;;;6.55;;
66751;SDS011;53663;42.676;23.238;2023-07-22T10:32:37;21.00;;;6.20;;
66751;SDS011;53663;42.676;23.238;2023-07-22T10:35:07;27.92;;;6.47;;
66751;SDS011;53663;42.676;23.238;2023-07-22T10:37:35;19.90;;;6.18;;
66751;SDS011;53663;42.676;23.238;2023-07-22T10:40:18;32.35;;;6.50;;
66751;SDS011;53663;42.676;23.238;2023-07-22T10:43:00;24.73;;;6.18;;
66751;SDS011;53663;42.676;23.238;2023-07-22T10:45:30;32.60;;;7.10;;
66751;SDS011;53663;42.676;23.238;2023-07-22T10:48:05;21.42;;;6.10;;
66751;SDS011;53663;42.676;23.238;2023-07-22T10:53:13;25.42;;;7.30;;
66751;SDS011;53663;42.676;23.238;2023-07-22T11:06:36;31.58;;;6.90;;
66751;SDS011;53663;42.676;23.238;2023-07-22T11:11:58;31.98;;;6.70;;
66751;SDS011;53663;42.676;23.238;2023-07-22T11:14:29;32.50;;;6.97;;
66751;SDS011;53663;42.676;23.238;2023-07-22T11:16:57;24.98;;;6.88;;
66751;SDS011;53663;42.676;23.238;2023-07-22T11:19:24;25.23;;;6.57;;
66751;SDS011;53663;42.676;23.238;2023-07-22T11:21:51;36.10;;;7.15;;
66751;SDS011;53663;42.676;23.238;2023-07-22T11:24:17;38.45;;;6.55;;
66751;SDS011;53663;42.676;23.238;2023-07-22T11:26:47;25.50;;;7.32;;
66751;SDS011;53663;42.676;23.238;2023-07-22T11:29:13;25.17;;;6.53;;
66751;SDS011;53663;42.676;23.238;2023-07-22T11:31:40;27.80;;;6.70;;
66751;SDS011;53663;42.676;23.238;2023-07-22T11:34:41;29.42;;;6.63;;
66751;SDS011;53663;42.676;23.238;2023-07-22T11:36:59;22.70;;;6.75;;
66751;SDS011;53663;42.676;23.238;2023-07-22T11:39:26;30.55;;;7.25;;
66751;SDS011;53663;42.676;23.238;2023-07-22T11:41:52;27.00;;;6.80;;
66751;SDS011;53663;42.676;23.238;2023-07-22T11:44:22;23.15;;;6.50;;
66751;SDS011;53663;42.676;23.238;2023-07-22T11:46:56;25.08;;;6.20;;
66751;SDS011;53663;42.676;23.238;2023-07-22T11:49:33;29.65;;;7.30;;
66751;SDS011;53663;42.676;23.238;2023-07-22T11:52:02;30.27;;;6.80;;
66751;SDS011;53663;42.676;23.238;2023-07-22T11:54:35;27.95;;;6.72;;
66751;SDS011;53663;42.676;23.238;2023-07-22T11:59:53;26.05;;;6.75;;
66751;SDS011;53663;42.676;23.238;2023-07-22T12:02:23;26.42;;;6.30;;
66751;SDS011;53663;42.676;23.238;2023-07-22T12:04:54;33.53;;;6.82;;
66751;SDS011;53663;42.676;23.238;2023-07-22T12:07:29;36.47;;;6.88;;
66751;SDS011;53663;42.676;23.238;2023-07-22T12:12:34;27.52;;;6.72;;
66751;SDS011;53663;42.676;23.238;2023-07-22T12:17:51;24.55;;;6.28;;
66751;SDS011;53663;42.676;23.238;2023-07-22T12:20:18;27.08;;;6.55;;
66751;SDS011;53663;42.676;23.238;2023-07-22T12:22:51;26.50;;;6.75;;
66751;SDS011;53663;42.676;23.238;2023-07-22T12:25:17;31.55;;;7.20;;
66751;SDS011;53663;42.676;23.238;2023-07-22T12:27:43;26.02;;;6.43;;
66751;SDS011;53663;42.676;23.238;2023-07-22T12:30:09;24.85;;;6.38;;
66751;SDS011;53663;42.676;23.238;2023-07-22T12:32:35;30.40;;;6.05;;
66751;SDS011;53663;42.676;23.238;2023-07-22T12:35:01;27.58;;;6.10;;
66751;SDS011;53663;42.676;23.238;2023-07-22T12:37:28;28.45;;;6.97;;
66751;SDS011;53663;42.676;23.238;2023-07-22T12:39:53;27.30;;;6.85;;
66751;SDS011;53663;42.676;23.238;2023-07-22T12:42:19;27.80;;;6.90;;
66751;SDS011;53663;42.676;23.238;2023-07-22T12:44:44;23.20;;;6.20;;
66751;SDS011;53663;42.676;23.238;2023-07-22T12:47:10;23.00;;;6.82;;
66751;SDS011;53663;42.676;23.238;2023-07-22T12:49:36;30.70;;;7.63;;
66751;SDS011;53663;42.676;23.238;2023-07-22T12:52:01;25.30;;;7.20;;
66751;SDS011;53663;42.676;23.238;2023-07-22T12:54:32;29.30;;;6.82;;
66751;SDS011;53663;42.676;23.238;2023-07-22T12:56:58;26.40;;;7.15;;
66751;SDS011;53663;42.676;23.238;2023-07-22T12:59:23;28.67;;;6.70;;
66751;SDS011;53663;42.676;23.238;2023-07-22T13:01:48;37.15;;;6.75;;
66751;SDS011;53663;42.676;23.238;2023-07-22T13:04:14;23.98;;;6.03;;
66751;SDS011;53663;42.676;23.238;2023-07-22T13:06:39;26.17;;;7.13;;
66751;SDS011;53663;42.676;23.238;2023-07-22T13:09:05;21.55;;;6.80;;
66751;SDS011;53663;42.676;23.238;2023-07-22T13:11:30;26.73;;;6.63;;
66751;SDS011;53663;42.676;23.238;2023-07-22T13:13:56;26.70;;;6.93;;
66751;SDS011;53663;42.676;23.238;2023-07-22T13:16:21;26.33;;;7.22;;
66751;SDS011;53663;42.676;23.238;2023-07-22T13:18:47;25.30;;;6.18;;
66751;SDS011;53663;42.676;23.238;2023-07-22T13:21:12;25.23;;;6.38;;
66751;SDS011;53663;42.676;23.238;2023-07-22T13:23:38;31.10;;;6.78;;
66751;SDS011;53663;42.676;23.238;2023-07-22T13:26:03;28.13;;;6.70;;
66751;SDS011;53663;42.676;23.238;2023-07-22T13:28:29;32.03;;;7.10;;
66751;SDS011;53663;42.676;23.238;2023-07-22T13:30:54;33.05;;;6.95;;
66751;SDS011;53663;42.676;23.238;2023-07-22T13:33:20;26.63;;;6.32;;
66751;SDS011;53663;42.676;23.238;2023-07-22T13:35:45;36.90;;;6.90;;
66751;SDS011;53663;42.676;23.238;2023-07-22T13:38:11;26.20;;;6.75;;
66751;SDS011;53663;42.676;23.238;2023-07-22T13:40:36;41.63;;;7.15;;
66751;SDS011;53663;42.676;23.238;2023-07-22T13:43:02;27.08;;;7.13;;
66751;SDS011;53663;42.676;23.238;2023-07-22T13:45:27;32.30;;;6.97;;
66751;SDS011;53663;42.676;23.238;2023-07-22T13:47:53;31.75;;;6.45;;
66751;SDS011;53663;42.676;23.238;2023-07-22T13:50:18;37.70;;;6.82;;
66751;SDS011;53663;42.676;23.238;2023-07-22T13:52:44;36.17;;;6.25;;
66751;SDS011;53663;42.676;23.238;2023-07-22T13:55:09;36.95;;;7.00;;
66751;SDS011;53663;42.676;23.238;2023-07-22T13:57:35;29.52;;;6.13;;
66751;SDS011;53663;42.676;23.238;2023-07-22T14:00:01;34.05;;;6.07;;
66751;SDS011;53663;42.676;23.238;2023-07-22T14:02:37;30.50;;;7.28;;
66751;SDS011;53663;42.676;23.238;2023-07-22T14:05:03;30.73;;;7.00;;
66751;SDS011;53663;42.676;23.238;2023-07-22T14:07:29;28.52;;;7.00;;
66751;SDS011;53663;42.676;23.238;2023-07-22T14:09:55;31.58;;;6.57;;
66751;SDS011;53663;42.676;23.238;2023-07-22T14:12:20;41.85;;;7.60;;
66751;SDS011;53663;42.676;23.238;2023-07-22T14:14:46;29.67;;;6.47;;
66751;SDS011;53663;42.676;23.238;2023-07-22T14:17:11;37.33;;;6.63;;
66751;SDS011;53663;42.676;23.238;2023-07-22T14:19:37;28.48;;;6.40;;
66751;SDS011;53663;42.676;23.238;2023-07-22T14:22:02;24.90;;;6.13;;
66751;SDS011;53663;42.676;23.238;2023-07-22T14:24:29;35.30;;;6.50;;
66751;SDS011;53663;42.676;23.238;2023-07-22T14:26:54;34.08;;;6.47;;
66751;SDS011;53663;42.676;23.238;2023-07-22T14:29:20;37.10;;;6.35;;
66751;SDS011;53663;42.676;23.238;2023-07-22T14:31:46;40.75;;;7.13;;
66751;SDS011;53663;42.676;23.238;2023-07-22T14:34:12;31.92;;;7.00;;
66751;SDS011;53663;42.676;23.238;2023-07-22T14:36:37;34.55;;;7.03;;
66751;SDS011;53663;42.676;23.238;2023-07-22T14:39:03;35.25;;;6.97;;
66751;SDS011;53663;42.676;23.238;2023-07-22T14:41:29;37.35;;;7.75;;
66751;SDS011;53663;42.676;23.238;2023-07-22T14:43:55;30.40;;;7.10;;
66751;SDS011;53663;42.676;23.238;2023-07-22T14:46:21;30.40;;;7.65;;
66751;SDS011;53663;42.676;23.238;2023-07-22T14:48:46;27.77;;;7.47;;